sensor_id;sensor_type;location;lat;lon;timestamp;pressure;altitude;pressure_sealevel;temperature;humidity
31717;BME280;18301;51.076;17.046;2022-11-15T00:00:00;100345.78;;;5.50;95.00
31717;BME280;18301;51.076;17.046;2022-11-15T00:05:01;100334.78;;;5.39;95.39
31717;BME280;18301;51.076;17.046;2022-11-15T00:10:03;100331.16;;;5.40;94.98
31717;BME280;18301;51.076;17.046;2022-11-15T00:15:05;100327.69;;;5.38;94.73
31717;BME280;18301;51.076;17.046;2022-11-15T00:20:07;100314.09;;;5.42;94.71
31717;BME280;18301;51.076;17.046;2022-11-15T00:25:09;100315.28;;;5.37;94.33
31717;BME280;18301;51.076;17.046;2022-11-15T00:30:11;100307.13;;;5.22;95.01
31717;BME280;18301;51.076;17.046;2022-11-15T00:35:12;100309.47;;;5.28;94.59
31717;BME280;18301;51.076;17.046;2022-11-15T00:40:14;100307.97;;;5.23;94.49
31717;BME280;18301;51.076;17.046;2022-11-15T00:45:16;100298.84;;;5.27;94.79
31717;BME280;18301;51.076;17.046;2022-11-15T00:50:18;100300.84;;;5.23;94.31
31717;BME280;18301;51.076;17.046;2022-11-15T00:55:19;100290.38;;;5.19;94.41
31717;BME280;18301;51.076;17.046;2022-11-15T01:00:21;100294.38;;;5.27;93.64
31717;BME280;18301;51.076;17.046;2022-11-15T01:05:23;100290.72;;;5.28;94.03
31717;BME280;18301;51.076;17.046;2022-11-15T01:10:24;100292.97;;;5.20;93.57
31717;BME280;18301;51.076;17.046;2022-11-15T01:15:27;100286.94;;;5.32;93.30
31717;BME280;18301;51.076;17.046;2022-11-15T01:20:28;100292.22;;;5.34;92.93
31717;BME280;18301;51.076;17.046;2022-11-15T01:25:30;100295.28;;;5.26;93.03
31717;BME280;18301;51.076;17.046;2022-11-15T01:30:31;100283.81;;;5.24;92.60
31717;BME280;18301;51.076;17.046;2022-11-15T01:35:33;100280.81;;;5.30;92.56
31717;BME280;18301;51.076;17.046;2022-11-15T01:40:34;100270.19;;;5.29;92.47
31717;BME280;18301;51.076;17.046;2022-11-15T01:45:36;100257.59;;;5.31;92.14
31717;BME280;18301;51.076;17.046;2022-11-15T01:50:37;100260.59;;;5.25;92.06
31717;BME280;18301;51.076;17.046;2022-11-15T01:55:39;100249.13;;;5.23;92.03
31717;BME280;18301;51.076;17.046;2022-11-15T02:00:40;100248.25;;;5.22;92.00
31717;BME280;18301;51.076;17.046;2022-11-15T02:05:43;100240.56;;;5.16;91.12
31717;BME280;18301;51.076;17.046;2022-11-15T02:10:48;100227.84;;;5.04;91.51
31717;BME280;18301;51.076;17.046;2022-11-15T02:16:26;100217.47;;;4.98;91.59
31717;BME280;18301;51.076;17.046;2022-11-15T02:21:51;100226.69;;;4.92;91.17
31717;BME280;18301;51.076;17.046;2022-11-15T02:32:35;100219.09;;;4.84;92.17
31717;BME280;18301;51.076;17.046;2022-11-15T02:37:48;100215.03;;;4.77;91.95
31717;BME280;18301;51.076;17.046;2022-11-15T02:42:56;100212.63;;;4.89;91.63
31717;BME280;18301;51.076;17.046;2022-11-15T02:48:17;100200.69;;;4.96;91.09
31717;BME280;18301;51.076;17.046;2022-11-15T02:53:24;100199.34;;;4.87;90.56
31717;BME280;18301;51.076;17.046;2022-11-15T03:09:07;100176.94;;;4.90;90.13
31717;BME280;18301;51.076;17.046;2022-11-15T03:14:31;100182.94;;;4.77;90.58
31717;BME280;18301;51.076;17.046;2022-11-15T03:19:43;100191.56;;;4.82;90.72
31717;BME280;18301;51.076;17.046;2022-11-15T03:24:50;100187.34;;;4.78;90.59
31717;BME280;18301;51.076;17.046;2022-11-15T03:29:57;100177.59;;;4.77;89.61
31717;BME280;18301;51.076;17.046;2022-11-15T03:35:10;100170.75;;;4.72;89.88
31717;BME280;18301;51.076;17.046;2022-11-15T03:40:13;100167.84;;;4.76;89.22
31717;BME280;18301;51.076;17.046;2022-11-15T03:45:19;100157.13;;;4.76;89.26
31717;BME280;18301;51.076;17.046;2022-11-15T03:50:24;100152.19;;;4.53;89.47
31717;BME280;18301;51.076;17.046;2022-11-15T03:55:26;100139.72;;;4.52;89.77
31717;BME280;18301;51.076;17.046;2022-11-15T04:00:28;100151.44;;;4.49;90.35
31717;BME280;18301;51.076;17.046;2022-11-15T04:05:30;100152.34;;;4.50;90.16
31717;BME280;18301;51.076;17.046;2022-11-15T04:10:31;100160.94;;;4.55;90.10
31717;BME280;18301;51.076;17.046;2022-11-15T04:15:33;100160.94;;;4.55;89.98
31717;BME280;18301;51.076;17.046;2022-11-15T04:20:35;100159.56;;;4.48;89.31
31717;BME280;18301;51.076;17.046;2022-11-15T04:25:56;100150.00;;;4.44;89.96
31717;BME280;18301;51.076;17.046;2022-11-15T04:30:59;100150.75;;;4.46;89.64
31717;BME280;18301;51.076;17.046;2022-11-15T04:36:00;100152.25;;;4.34;89.71
31717;BME280;18301;51.076;17.046;2022-11-15T04:41:22;100140.53;;;4.36;89.24
31717;BME280;18301;51.076;17.046;2022-11-15T04:46:23;100145.88;;;4.36;89.73
31717;BME280;18301;51.076;17.046;2022-11-15T04:51:25;100121.94;;;4.35;89.73
31717;BME280;18301;51.076;17.046;2022-11-15T04:56:27;100127.81;;;4.24;89.07
31717;BME280;18301;51.076;17.046;2022-11-15T05:01:28;100134.13;;;4.23;89.72
31717;BME280;18301;51.076;17.046;2022-11-15T05:06:30;100123.53;;;4.04;90.08
31717;BME280;18301;51.076;17.046;2022-11-15T05:11:31;100134.75;;;4.11;90.54
31717;BME280;18301;51.076;17.046;2022-11-15T05:16:33;100126.19;;;4.22;90.14
31717;BME280;18301;51.076;17.046;2022-11-15T05:21:35;100120.78;;;4.23;89.41
31717;BME280;18301;51.076;17.046;2022-11-15T05:26:37;100114.94;;;4.15;89.15
31717;BME280;18301;51.076;17.046;2022-11-15T05:31:40;100121.72;;;4.22;89.20
31717;BME280;18301;51.076;17.046;2022-11-15T05:36:43;100122.91;;;4.17;89.14
31717;BME280;18301;51.076;17.046;2022-11-15T05:41:49;100118.41;;;4.17;89.17
31717;BME280;18301;51.076;17.046;2022-11-15T05:46:53;100113.06;;;4.17;88.41
31717;BME280;18301;51.076;17.046;2022-11-15T05:51:56;100109.00;;;4.10;88.06
31717;BME280;18301;51.076;17.046;2022-11-15T05:56:58;100113.22;;;4.14;88.13
31717;BME280;18301;51.076;17.046;2022-11-15T06:02:01;100109.94;;;4.09;87.31
31717;BME280;18301;51.076;17.046;2022-11-15T06:07:02;100111.09;;;4.03;88.08
31717;BME280;18301;51.076;17.046;2022-11-15T06:12:04;100107.50;;;4.04;87.69
31717;BME280;18301;51.076;17.046;2022-11-15T06:17:05;100109.06;;;4.08;87.67
31717;BME280;18301;51.076;17.046;2022-11-15T06:22:11;100114.09;;;4.14;87.79
31717;BME280;18301;51.076;17.046;2022-11-15T06:27:13;100112.28;;;4.15;87.64
31717;BME280;18301;51.076;17.046;2022-11-15T06:32:14;100107.09;;;4.29;87.23
31717;BME280;18301;51.076;17.046;2022-11-15T06:37:16;100117.16;;;4.24;87.90
31717;BME280;18301;51.076;17.046;2022-11-15T06:42:17;100116.75;;;4.32;89.16
31717;BME280;18301;51.076;17.046;2022-11-15T06:47:18;100106.44;;;4.42;89.53
31717;BME280;18301;51.076;17.046;2022-11-15T06:52:20;100120.09;;;4.53;89.26
31717;BME280;18301;51.076;17.046;2022-11-15T06:57:22;100127.50;;;4.48;89.36
31717;BME280;18301;51.076;17.046;2022-11-15T07:02:24;100131.81;;;4.50;90.03
31717;BME280;18301;51.076;17.046;2022-11-15T07:07:25;100139.34;;;4.59;89.89
31717;BME280;18301;51.076;17.046;2022-11-15T07:12:27;100132.91;;;4.79;90.54
31717;BME280;18301;51.076;17.046;2022-11-15T07:17:28;100142.59;;;4.98;90.10
31717;BME280;18301;51.076;17.046;2022-11-15T07:22:30;100149.19;;;5.08;89.81
31717;BME280;18301;51.076;17.046;2022-11-15T07:27:32;100148.41;;;5.22;89.12
31717;BME280;18301;51.076;17.046;2022-11-15T07:32:34;100141.53;;;5.34;89.43
31717;BME280;18301;51.076;17.046;2022-11-15T07:37:35;100130.53;;;5.54;88.80
31717;BME280;18301;51.076;17.046;2022-11-15T07:42:37;100123.06;;;5.75;89.06
31717;BME280;18301;51.076;17.046;2022-11-15T07:47:54;100118.72;;;6.04;88.21
31717;BME280;18301;51.076;17.046;2022-11-15T07:52:58;100115.13;;;6.34;87.91
31717;BME280;18301;51.076;17.046;2022-11-15T07:58:01;100124.75;;;6.52;87.58
31717;BME280;18301;51.076;17.046;2022-11-15T08:03:11;100129.06;;;6.83;87.38
31717;BME280;18301;51.076;17.046;2022-11-15T08:08:13;100126.06;;;7.17;85.60
31717;BME280;18301;51.076;17.046;2022-11-15T08:13:14;100118.41;;;7.10;85.27
31717;BME280;18301;51.076;17.046;2022-11-15T08:18:16;100112.09;;;7.11;85.25
31717;BME280;18301;51.076;17.046;2022-11-15T08:23:18;100102.59;;;7.47;85.17
31717;BME280;18301;51.076;17.046;2022-11-15T08:28:19;100101.91;;;7.58;84.48
31717;BME280;18301;51.076;17.046;2022-11-15T08:33:21;100104.09;;;7.78;84.30
31717;BME280;18301;51.076;17.046;2022-11-15T08:38:22;100085.13;;;7.94;83.38
31717;BME280;18301;51.076;17.046;2022-11-15T08:43:24;100092.25;;;7.95;83.04
31717;BME280;18301;51.076;17.046;2022-11-15T08:48:25;100079.25;;;8.02;83.61
31717;BME280;18301;51.076;17.046;2022-11-15T08:53:27;100079.06;;;8.18;83.63
31717;BME280;18301;51.076;17.046;2022-11-15T08:58:28;100071.63;;;8.34;84.00
31717;BME280;18301;51.076;17.046;2022-11-15T09:03:30;100079.19;;;8.55;83.43
31717;BME280;18301;51.076;17.046;2022-11-15T09:08:32;100073.13;;;8.89;83.33
31717;BME280;18301;51.076;17.046;2022-11-15T09:13:47;100082.84;;;9.29;83.03
31717;BME280;18301;51.076;17.046;2022-11-15T09:18:49;100082.06;;;9.39;82.64
31717;BME280;18301;51.076;17.046;2022-11-15T09:23:51;100077.41;;;9.65;82.29
31717;BME280;18301;51.076;17.046;2022-11-15T09:28:53;100081.78;;;10.26;81.28
31717;BME280;18301;51.076;17.046;2022-11-15T09:33:55;100075.38;;;10.51;80.93
31717;BME280;18301;51.076;17.046;2022-11-15T09:38:57;100069.00;;;10.63;80.21
31717;BME280;18301;51.076;17.046;2022-11-15T09:44:34;100061.25;;;10.92;79.59
31717;BME280;18301;51.076;17.046;2022-11-15T09:49:39;100060.25;;;11.27;78.47
31717;BME280;18301;51.076;17.046;2022-11-15T09:54:46;100057.91;;;11.66;78.38
31717;BME280;18301;51.076;17.046;2022-11-15T10:00:07;100036.84;;;11.92;76.71
31717;BME280;18301;51.076;17.046;2022-11-15T10:05:30;100037.34;;;11.86;76.40
31717;BME280;18301;51.076;17.046;2022-11-15T10:10:36;100029.47;;;11.83;75.97
31717;BME280;18301;51.076;17.046;2022-11-15T10:15:42;100016.78;;;11.62;76.17
31717;BME280;18301;51.076;17.046;2022-11-15T10:20:59;100014.81;;;11.64;76.56
31717;BME280;18301;51.076;17.046;2022-11-15T10:26:01;100002.47;;;11.71;76.60
31717;BME280;18301;51.076;17.046;2022-11-15T10:31:24;100005.13;;;11.83;76.48
31717;BME280;18301;51.076;17.046;2022-11-15T10:36:26;99992.34;;;11.85;76.28
31717;BME280;18301;51.076;17.046;2022-11-15T10:41:36;99985.50;;;12.23;76.59
31717;BME280;18301;51.076;17.046;2022-11-15T10:46:40;99974.97;;;12.50;75.49
31717;BME280;18301;51.076;17.046;2022-11-15T10:56:54;99965.81;;;12.92;75.44
31717;BME280;18301;51.076;17.046;2022-11-15T11:01:57;99957.41;;;12.95;74.66
31717;BME280;18301;51.076;17.046;2022-11-15T11:06:59;99962.16;;;13.12;74.51
31717;BME280;18301;51.076;17.046;2022-11-15T11:12:02;99957.13;;;12.98;74.78
31717;BME280;18301;51.076;17.046;2022-11-15T11:17:18;99962.38;;;12.89;74.39
31717;BME280;18301;51.076;17.046;2022-11-15T11:22:34;99947.53;;;12.74;74.55
31717;BME280;18301;51.076;17.046;2022-11-15T11:48:43;99917.69;;;13.53;71.81
31717;BME280;18301;51.076;17.046;2022-11-15T11:53:58;99908.28;;;13.38;71.01
31717;BME280;18301;51.076;17.046;2022-11-15T12:04:23;99901.75;;;13.31;71.38
31717;BME280;18301;51.076;17.046;2022-11-15T12:09:35;99893.03;;;13.27;70.88
31717;BME280;18301;51.076;17.046;2022-11-15T12:14:51;99894.03;;;13.26;70.48
31717;BME280;18301;51.076;17.046;2022-11-15T12:19:57;99879.75;;;13.24;70.68
31717;BME280;18301;51.076;17.046;2022-11-15T12:25:04;99879.88;;;13.23;69.99
31717;BME280;18301;51.076;17.046;2022-11-15T12:30:13;99864.38;;;13.25;71.01
31717;BME280;18301;51.076;17.046;2022-11-15T12:35:34;99860.50;;;13.37;70.52
31717;BME280;18301;51.076;17.046;2022-11-15T12:40:38;99860.25;;;13.30;70.94
31717;BME280;18301;51.076;17.046;2022-11-15T12:46:02;99858.22;;;13.32;71.07
31717;BME280;18301;51.076;17.046;2022-11-15T12:51:05;99849.13;;;13.33;70.90
31717;BME280;18301;51.076;17.046;2022-11-15T13:06:40;99823.56;;;13.36;71.29
31717;BME280;18301;51.076;17.046;2022-11-15T13:11:46;99822.88;;;13.34;71.47
31717;BME280;18301;51.076;17.046;2022-11-15T13:16:58;99820.00;;;13.35;72.27
31717;BME280;18301;51.076;17.046;2022-11-15T13:22:04;99806.59;;;13.34;73.00
31717;BME280;18301;51.076;17.046;2022-11-15T13:27:28;99812.03;;;13.34;73.28
31717;BME280;18301;51.076;17.046;2022-11-15T13:32:30;99813.28;;;13.30;73.62
31717;BME280;18301;51.076;17.046;2022-11-15T13:37:32;99813.28;;;13.30;73.97
31717;BME280;18301;51.076;17.046;2022-11-15T13:42:34;99809.72;;;13.29;74.43
31717;BME280;18301;51.076;17.046;2022-11-15T13:47:36;99804.47;;;13.28;74.54
31717;BME280;18301;51.076;17.046;2022-11-15T13:52:38;99805.03;;;13.22;74.69
31717;BME280;18301;51.076;17.046;2022-11-15T13:57:44;99803.59;;;13.18;75.21
31717;BME280;18301;51.076;17.046;2022-11-15T14:02:46;99794.63;;;13.07;75.45
31717;BME280;18301;51.076;17.046;2022-11-15T14:08:05;99789.38;;;12.96;76.10
31717;BME280;18301;51.076;17.046;2022-11-15T14:13:29;99772.69;;;12.81;76.61
31717;BME280;18301;51.076;17.046;2022-11-15T14:23:43;99781.69;;;12.62;77.34
31717;BME280;18301;51.076;17.046;2022-11-15T14:28:45;99776.38;;;12.51;77.75
31717;BME280;18301;51.076;17.046;2022-11-15T14:33:47;99771.66;;;12.43;78.02
31717;BME280;18301;51.076;17.046;2022-11-15T14:38:49;99761.13;;;12.31;78.34
31717;BME280;18301;51.076;17.046;2022-11-15T14:43:51;99761.09;;;12.21;78.65
31717;BME280;18301;51.076;17.046;2022-11-15T14:48:53;99747.69;;;12.10;78.65
31717;BME280;18301;51.076;17.046;2022-11-15T14:53:54;99744.00;;;12.01;78.79
31717;BME280;18301;51.076;17.046;2022-11-15T14:58:57;99743.38;;;11.88;79.21
31717;BME280;18301;51.076;17.046;2022-11-15T15:03:59;99744.03;;;11.80;79.32
31717;BME280;18301;51.076;17.046;2022-11-15T15:09:01;99733.03;;;11.72;80.08
31717;BME280;18301;51.076;17.046;2022-11-15T15:14:02;99727.47;;;11.64;80.18
31717;BME280;18301;51.076;17.046;2022-11-15T15:19:04;99726.44;;;11.55;80.57
31717;BME280;18301;51.076;17.046;2022-11-15T15:24:07;99728.22;;;11.45;80.81
31717;BME280;18301;51.076;17.046;2022-11-15T15:29:14;99735.44;;;11.35;81.37
31717;BME280;18301;51.076;17.046;2022-11-15T15:34:16;99726.50;;;11.13;81.41
31717;BME280;18301;51.076;17.046;2022-11-15T15:39:18;99725.63;;;11.03;81.83
31717;BME280;18301;51.076;17.046;2022-11-15T15:44:19;99723.56;;;10.95;82.46
31717;BME280;18301;51.076;17.046;2022-11-15T15:49:20;99718.94;;;10.86;82.43
31717;BME280;18301;51.076;17.046;2022-11-15T15:54:22;99718.63;;;10.79;82.87
31717;BME280;18301;51.076;17.046;2022-11-15T15:59:23;99712.31;;;10.69;83.33
31717;BME280;18301;51.076;17.046;2022-11-15T16:04:25;99715.31;;;10.55;83.15
31717;BME280;18301;51.076;17.046;2022-11-15T16:09:27;99706.03;;;10.48;83.74
31717;BME280;18301;51.076;17.046;2022-11-15T16:14:47;99701.28;;;10.40;84.30
31717;BME280;18301;51.076;17.046;2022-11-15T16:19:48;99714.66;;;10.42;84.74
31717;BME280;18301;51.076;17.046;2022-11-15T16:24:50;99709.00;;;10.45;84.68
31717;BME280;18301;51.076;17.046;2022-11-15T16:29:51;99708.53;;;10.40;84.72
31717;BME280;18301;51.076;17.046;2022-11-15T16:34:52;99713.72;;;10.31;85.04
31717;BME280;18301;51.076;17.046;2022-11-15T16:39:55;99719.09;;;10.20;85.24
31717;BME280;18301;51.076;17.046;2022-11-15T16:45:01;99724.28;;;10.12;85.54
31717;BME280;18301;51.076;17.046;2022-11-15T16:50:03;99719.88;;;10.00;85.51
31717;BME280;18301;51.076;17.046;2022-11-15T16:55:04;99709.88;;;9.90;85.62
31717;BME280;18301;51.076;17.046;2022-11-15T17:00:10;99701.56;;;9.82;85.42
31717;BME280;18301;51.076;17.046;2022-11-15T17:05:12;99689.81;;;9.72;85.63
31717;BME280;18301;51.076;17.046;2022-11-15T17:10:21;99692.41;;;9.74;85.62
31717;BME280;18301;51.076;17.046;2022-11-15T17:15:23;99686.66;;;9.67;85.78
31717;BME280;18301;51.076;17.046;2022-11-15T17:20:25;99695.50;;;9.58;85.74
31717;BME280;18301;51.076;17.046;2022-11-15T17:25:27;99691.81;;;9.48;86.05
31717;BME280;18301;51.076;17.046;2022-11-15T17:30:28;99700.25;;;9.43;86.39
31717;BME280;18301;51.076;17.046;2022-11-15T17:35:30;99687.16;;;9.38;86.68
31717;BME280;18301;51.076;17.046;2022-11-15T17:40:31;99682.50;;;9.29;85.88
31717;BME280;18301;51.076;17.046;2022-11-15T17:45:33;99683.25;;;9.20;85.92
31717;BME280;18301;51.076;17.046;2022-11-15T17:50:34;99675.44;;;9.06;85.41
31717;BME280;18301;51.076;17.046;2022-11-15T17:55:37;99683.72;;;8.91;85.36
31717;BME280;18301;51.076;17.046;2022-11-15T18:00:38;99663.28;;;8.89;85.71
31717;BME280;18301;51.076;17.046;2022-11-15T18:05:40;99669.53;;;8.78;85.58
31717;BME280;18301;51.076;17.046;2022-11-15T18:10:44;99672.44;;;8.75;85.48
31717;BME280;18301;51.076;17.046;2022-11-15T18:15:53;99650.91;;;8.64;85.49
31717;BME280;18301;51.076;17.046;2022-11-15T18:21:05;99664.34;;;8.64;85.49
31717;BME280;18301;51.076;17.046;2022-11-15T18:26:10;99657.50;;;8.60;85.59
31717;BME280;18301;51.076;17.046;2022-11-15T18:31:20;99653.69;;;8.51;85.46
31717;BME280;18301;51.076;17.046;2022-11-15T18:36:24;99653.06;;;8.47;85.33
31717;BME280;18301;51.076;17.046;2022-11-15T18:41:26;99645.72;;;8.38;85.34
31717;BME280;18301;51.076;17.046;2022-11-15T18:46:30;99648.00;;;8.32;85.21
31717;BME280;18301;51.076;17.046;2022-11-15T18:51:33;99656.06;;;8.32;85.16
31717;BME280;18301;51.076;17.046;2022-11-15T18:56:36;99649.94;;;8.29;85.13
31717;BME280;18301;51.076;17.046;2022-11-15T19:01:39;99648.69;;;8.22;84.90
31717;BME280;18301;51.076;17.046;2022-11-15T19:06:42;99652.69;;;8.17;84.77
31717;BME280;18301;51.076;17.046;2022-11-15T19:11:45;99659.25;;;8.13;84.77
31717;BME280;18301;51.076;17.046;2022-11-15T19:16:47;99654.56;;;8.03;85.03
31717;BME280;18301;51.076;17.046;2022-11-15T19:21:55;99648.47;;;8.01;85.88
31717;BME280;18301;51.076;17.046;2022-11-15T19:26:59;99636.50;;;8.05;86.16
31717;BME280;18301;51.076;17.046;2022-11-15T19:32:01;99636.66;;;8.04;86.48
31717;BME280;18301;51.076;17.046;2022-11-15T19:37:04;99638.00;;;8.10;86.96
31717;BME280;18301;51.076;17.046;2022-11-15T19:42:05;99627.66;;;8.16;87.71
31717;BME280;18301;51.076;17.046;2022-11-15T19:47:07;99627.06;;;8.24;87.82
31717;BME280;18301;51.076;17.046;2022-11-15T19:52:09;99616.69;;;8.30;88.06
31717;BME280;18301;51.076;17.046;2022-11-15T19:57:11;99611.81;;;8.36;88.18
31717;BME280;18301;51.076;17.046;2022-11-15T20:02:12;99599.88;;;8.40;88.24
31717;BME280;18301;51.076;17.046;2022-11-15T20:07:13;99590.72;;;8.42;88.38
31717;BME280;18301;51.076;17.046;2022-11-15T20:12:15;99599.66;;;8.54;88.60
31717;BME280;18301;51.076;17.046;2022-11-15T20:17:16;99589.75;;;8.55;88.35
31717;BME280;18301;51.076;17.046;2022-11-15T20:22:18;99586.50;;;8.62;88.63
31717;BME280;18301;51.076;17.046;2022-11-15T20:27:19;99591.97;;;8.61;89.09
31717;BME280;18301;51.076;17.046;2022-11-15T20:32:21;99586.97;;;8.56;89.11
31717;BME280;18301;51.076;17.046;2022-11-15T20:37:22;99589.53;;;8.58;89.66
31717;BME280;18301;51.076;17.046;2022-11-15T20:42:24;99580.72;;;8.56;89.83
31717;BME280;18301;51.076;17.046;2022-11-15T20:47:29;99576.81;;;8.60;89.80
31717;BME280;18301;51.076;17.046;2022-11-15T20:52:30;99572.91;;;8.64;90.17
31717;BME280;18301;51.076;17.046;2022-11-15T20:57:32;99560.22;;;8.66;90.34
31717;BME280;18301;51.076;17.046;2022-11-15T21:02:33;99556.53;;;8.67;90.09
31717;BME280;18301;51.076;17.046;2022-11-15T21:07:35;99577.06;;;8.68;90.15
31717;BME280;18301;51.076;17.046;2022-11-15T21:12:36;99572.31;;;8.71;90.38
31717;BME280;18301;51.076;17.046;2022-11-15T21:17:38;99565.09;;;8.72;90.23
31717;BME280;18301;51.076;17.046;2022-11-15T21:22:39;99565.59;;;8.66;90.27
31717;BME280;18301;51.076;17.046;2022-11-15T21:27:41;99559.34;;;8.65;90.49
31717;BME280;18301;51.076;17.046;2022-11-15T21:32:43;99551.41;;;8.64;90.87
31717;BME280;18301;51.076;17.046;2022-11-15T21:37:45;99546.25;;;8.61;91.43
31717;BME280;18301;51.076;17.046;2022-11-15T21:42:49;99536.59;;;8.58;91.46
31717;BME280;18301;51.076;17.046;2022-11-15T21:47:51;99535.50;;;8.61;91.52
31717;BME280;18301;51.076;17.046;2022-11-15T21:52:52;99535.25;;;8.64;91.79
31717;BME280;18301;51.076;17.046;2022-11-15T21:57:54;99529.28;;;8.60;91.83
31717;BME280;18301;51.076;17.046;2022-11-15T22:02:55;99521.31;;;8.59;91.43
31717;BME280;18301;51.076;17.046;2022-11-15T22:07:57;99511.94;;;8.53;91.60
31717;BME280;18301;51.076;17.046;2022-11-15T22:12:58;99513.75;;;8.41;92.16
31717;BME280;18301;51.076;17.046;2022-11-15T22:18:00;99512.47;;;8.34;92.59
31717;BME280;18301;51.076;17.046;2022-11-15T22:23:02;99514.00;;;8.38;92.67
31717;BME280;18301;51.076;17.046;2022-11-15T22:28:04;99511.38;;;8.37;92.59
31717;BME280;18301;51.076;17.046;2022-11-15T22:33:06;99502.84;;;8.43;93.01
31717;BME280;18301;51.076;17.046;2022-11-15T22:38:08;99502.25;;;8.50;92.76
31717;BME280;18301;51.076;17.046;2022-11-15T22:43:11;99504.94;;;8.50;92.44
31717;BME280;18301;51.076;17.046;2022-11-15T22:48:14;99500.78;;;8.46;92.59
31717;BME280;18301;51.076;17.046;2022-11-15T22:53:17;99493.88;;;8.31;92.90
31717;BME280;18301;51.076;17.046;2022-11-15T22:58:20;99478.25;;;8.25;92.77
31717;BME280;18301;51.076;17.046;2022-11-15T23:03:23;99483.63;;;8.25;93.25
31717;BME280;18301;51.076;17.046;2022-11-15T23:08:25;99480.94;;;8.25;93.48
31717;BME280;18301;51.076;17.046;2022-11-15T23:13:29;99479.97;;;8.26;93.43
31717;BME280;18301;51.076;17.046;2022-11-15T23:18:35;99486.81;;;8.30;92.82
31717;BME280;18301;51.076;17.046;2022-11-15T23:23:38;99479.75;;;8.29;92.75
31717;BME280;18301;51.076;17.046;2022-11-15T23:28:39;99468.72;;;8.21;92.65
31717;BME280;18301;51.076;17.046;2022-11-15T23:33:41;99469.94;;;8.17;92.91
31717;BME280;18301;51.076;17.046;2022-11-15T23:38:58;99473.50;;;8.17;93.03
31717;BME280;18301;51.076;17.046;2022-11-15T23:44:00;99480.69;;;8.17;93.03
31717;BME280;18301;51.076;17.046;2022-11-15T23:49:02;99467.50;;;8.14;93.07
31717;BME280;18301;51.076;17.046;2022-11-15T23:54:04;99463.97;;;8.13;93.12
31717;BME280;18301;51.076;17.046;2022-11-15T23:59:07;99461.88;;;8.17;93.36
